Time;durP1;ratioP1;P1;durP2;ratioP2;P2;SDS_P1;SDS_P2;PMS_P1;PMS_P2;Temp;Humidity;BMP_temperature;BMP_pressure;BME280_temperature;BME280_humidity;BME280_pressure;Samples;Min_cycle;Max_cycle;Signal;HPM_P1;HPM_P2
2022/01/03 00:00:19;;;;;;;44.33;29.50;;;;;;;8.03;95.56;99961.75;5071575;28;20194;-58
2022/01/03 00:02:47;;;;;;;52.90;30.93;;;;;;;8.03;94.94;99964.31;5071440;28;20202;-57
2022/01/03 00:05:14;;;;;;;50.87;32.00;;;;;;;8.00;95.60;99959.09;5071346;28;20185;-57
2022/01/03 00:07:43;;;;;;;59.97;33.70;;;;;;;7.96;95.75;99958.16;5071444;28;20674;-57
2022/01/03 00:10:12;;;;;;;58.03;32.57;;;;;;;8.00;95.99;99959.97;5071571;28;20203;-59
2022/01/03 00:12:40;;;;;;;56.73;34.00;;;;;;;7.96;95.92;99949.59;5071242;28;20216;-58
2022/01/03 00:15:10;;;;;;;61.97;33.07;;;;;;;7.91;95.90;99941.75;5071282;28;21061;-58
2022/01/03 00:17:39;;;;;;;58.37;32.87;;;;;;;7.93;95.94;99944.38;5051513;28;20194;-58
2022/01/03 00:20:08;;;;;;;56.83;33.37;;;;;;;7.95;95.92;99928.25;5051232;28;20192;-57
2022/01/03 00:22:41;;;;;;;51.50;31.57;;;;;;;7.99;96.22;99917.31;5051237;28;20228;-58
2022/01/03 00:25:16;;;;;;;54.13;32.07;;;;;;;8.05;95.79;99908.94;5051275;28;20672;-57
2022/01/03 00:27:51;;;;;;;60.33;37.45;;;;;;;8.01;95.76;99896.88;5050973;28;21248;-58
2022/01/03 00:30:21;;;;;;;59.97;33.97;;;;;;;8.16;95.46;99895.69;5051186;28;20204;-58
2022/01/03 00:32:51;;;;;;;58.80;32.47;;;;;;;8.16;95.75;99897.34;5057629;28;20547;-58
2022/01/03 00:35:19;;;;;;;58.17;33.87;;;;;;;8.08;95.76;99892.00;5070952;28;20608;-57
2022/01/03 00:37:47;;;;;;;61.77;34.33;;;;;;;8.16;95.53;99890.56;5070971;28;20276;-58
2022/01/03 00:40:16;;;;;;;59.53;32.30;;;;;;;8.07;95.51;99884.28;5070881;28;20276;-58
2022/01/03 00:42:44;;;;;;;52.83;31.40;;;;;;;8.05;95.57;99880.78;5070674;28;20220;-58
2022/01/03 00:45:11;;;;;;;56.47;31.90;;;;;;;8.00;95.23;99878.09;5070705;28;20199;-58
2022/01/03 00:47:38;;;;;;;52.23;31.70;;;;;;;8.06;95.46;99877.44;5070570;28;20658;-58
2022/01/03 00:50:09;;;;;;;50.33;29.13;;;;;;;8.05;95.18;99871.44;5070563;28;20195;-59
2022/01/03 00:52:37;;;;;;;48.60;30.23;;;;;;;7.89;95.12;99865.75;5070808;28;20248;-58
2022/01/03 00:55:04;;;;;;;48.33;29.97;;;;;;;7.95;95.17;99869.41;5070756;28;20199;-58
2022/01/03 00:57:43;;;;;;;52.80;29.87;;;;;;;7.95;95.07;99873.66;5070103;28;20286;-58
2022/01/03 01:00:11;;;;;;;55.97;30.00;;;;;;;7.85;95.50;99874.19;5070507;28;20718;-58
2022/01/03 01:02:41;;;;;;;52.93;28.20;;;;;;;7.83;95.80;99875.81;5070326;28;20221;-58
2022/01/03 01:05:09;;;;;;;53.03;28.30;;;;;;;7.74;95.90;99878.94;5070617;28;20381;-59
2022/01/03 01:07:40;;;;;;;45.27;26.50;;;;;;;7.70;95.74;99880.50;5070578;28;20188;-58
2022/01/03 01:10:08;;;;;;;47.43;27.17;;;;;;;7.66;96.35;99882.94;5070332;28;20195;-58
2022/01/03 01:12:38;;;;;;;50.90;29.70;;;;;;;7.67;96.30;99870.19;5070511;28;20270;-58
2022/01/03 01:15:05;;;;;;;49.33;26.77;;;;;;;7.71;96.73;99871.16;5070223;28;20197;-58
2022/01/03 01:17:33;;;;;;;43.90;27.07;;;;;;;7.73;96.28;99865.28;5070484;28;20202;-58
2022/01/03 01:20:00;;;;;;;42.00;26.40;;;;;;;7.59;96.33;99853.72;5070170;28;20197;-58
2022/01/03 01:22:29;;;;;;;48.00;27.50;;;;;;;7.64;96.82;99852.19;5070138;28;20239;-57
2022/01/03 01:25:23;;;;;;;46.73;26.30;;;;;;;7.67;96.57;99851.41;5070601;28;20190;-58
2022/01/03 01:27:49;;;;;;;40.43;25.13;;;;;;;7.67;96.71;99852.28;5070252;28;20284;-57
2022/01/03 01:30:17;;;;;;;43.43;27.37;;;;;;;7.71;96.86;99848.16;5070034;28;20201;-58
2022/01/03 01:32:48;;;;;;;50.33;27.23;;;;;;;7.59;96.69;99838.38;5070290;28;20191;-58
2022/01/03 01:35:17;;;;;;;45.00;27.83;;;;;;;7.70;96.96;99833.63;5070392;28;20272;-58
2022/01/03 01:37:49;;;;;;;43.70;27.50;;;;;;;7.78;96.36;99827.06;5070125;28;20281;-57
2022/01/03 01:40:16;;;;;;;43.00;25.03;;;;;;;7.82;96.03;99825.47;5070311;28;20194;-58
2022/01/03 01:42:46;;;;;;;35.13;21.67;;;;;;;7.82;96.32;99820.34;5069976;28;20226;-57
2022/01/03 01:45:17;;;;;;;32.27;20.20;;;;;;;7.84;95.99;99821.25;5070104;28;20197;-57
2022/01/03 01:47:48;;;;;;;31.17;20.17;;;;;;;7.83;95.41;99815.28;5070034;28;20562;-58
2022/01/03 01:50:15;;;;;;;30.20;20.13;;;;;;;7.75;95.73;99814.16;5069916;28;20198;-58
2022/01/03 01:52:48;;;;;;;28.83;19.23;;;;;;;7.69;95.29;99819.09;5069870;28;20285;-57
2022/01/03 01:55:16;;;;;;;27.40;17.60;;;;;;;7.53;94.98;99811.72;5070088;28;20188;-57
2022/01/03 01:57:57;;;;;;;32.80;17.67;;;;;;;7.31;94.74;99811.81;5070053;28;20192;-58
2022/01/03 02:00:26;;;;;;;26.37;18.37;;;;;;;7.33;95.09;99808.53;5068291;28;20207;-58
2022/01/03 02:03:12;;;;;;;31.37;19.47;;;;;;;7.37;95.68;99792.47;5069974;28;20252;-57
2022/01/03 02:05:41;;;;;;;33.13;23.27;;;;;;;7.10;95.98;99786.41;5069099;28;21006;-58
2022/01/03 02:08:17;;;;;;;32.73;19.80;;;;;;;7.16;96.16;99789.19;5069796;28;20291;-58
2022/01/03 02:10:45;;;;;;;26.20;17.87;;;;;;;7.12;95.75;99787.34;5071569;28;20200;-58
2022/01/03 02:13:18;;;;;;;32.57;18.70;;;;;;;7.11;95.59;99788.16;5073735;28;20198;-58
2022/01/03 02:15:49;;;;;;;28.33;18.77;;;;;;;7.04;96.28;99776.84;5057658;28;20667;-58
2022/01/03 02:18:16;;;;;;;29.67;19.87;;;;;;;7.14;96.23;99765.28;5053532;28;20280;-58
2022/01/03 02:20:44;;;;;;;29.80;18.50;;;;;;;7.03;96.33;99757.22;5053412;28;20205;-58
2022/01/03 02:23:13;;;;;;;29.63;19.63;;;;;;;7.12;96.18;99759.22;5053287;28;20231;-57
2022/01/03 02:25:40;;;;;;;28.30;18.23;;;;;;;7.09;95.81;99751.44;5053577;28;20212;-58
2022/01/03 02:28:07;;;;;;;39.77;20.20;;;;;;;7.07;94.97;99763.31;5053413;28;20791;-57
2022/01/03 02:30:35;;;;;;;36.27;19.73;;;;;;;7.00;95.57;99761.38;5053313;28;20194;-58
2022/01/03 02:33:02;;;;;;;31.50;20.93;;;;;;;7.08;95.68;99752.28;5053407;28;20776;-58
2022/01/03 02:35:29;;;;;;;39.03;21.80;;;;;;;7.09;96.38;99739.56;5053145;28;20189;-58
2022/01/03 02:37:58;;;;;;;35.63;21.80;;;;;;;7.15;96.28;99731.22;5053526;28;20202;-58
2022/01/03 02:40:25;;;;;;;45.00;21.03;;;;;;;7.20;95.93;99731.41;5053025;28;20286;-58
2022/01/03 02:42:52;;;;;;;38.40;21.70;;;;;;;7.25;95.72;99743.47;5052776;28;20217;-58
2022/01/03 02:45:22;;;;;;;49.07;21.23;;;;;;;7.21;96.01;99751.00;5055613;28;20574;-57
2022/01/03 02:47:51;;;;;;;42.60;22.30;;;;;;;7.25;95.58;99748.59;5070210;28;20445;-58
2022/01/03 02:50:21;;;;;;;42.47;21.53;;;;;;;7.18;95.79;99746.66;5072701;28;20640;-58
2022/01/03 02:52:49;;;;;;;34.07;22.27;;;;;;;7.13;95.71;99753.31;5072187;28;20697;-58
2022/01/03 02:55:18;;;;;;;39.33;21.90;;;;;;;6.89;96.51;99726.94;5072275;28;20185;-58
2022/01/03 02:57:48;;;;;;;37.77;22.37;;;;;;;7.17;96.63;99767.06;5072159;28;20189;-58
2022/01/03 03:00:18;;;;;;;49.13;23.57;;;;;;;7.04;97.25;99758.97;5072703;28;20268;-58
2022/01/03 03:02:45;;;;;;;44.37;22.57;;;;;;;7.01;96.95;99742.66;5072657;28;20223;-58
2022/01/03 03:05:13;;;;;;;41.50;23.80;;;;;;;7.02;97.02;99759.75;5072795;28;20198;-58
2022/01/03 03:07:40;;;;;;;43.50;24.43;;;;;;;7.10;97.66;99754.06;5073071;28;20194;-59
2022/01/03 03:10:09;;;;;;;42.03;25.03;;;;;;;7.17;97.07;99764.50;5077323;28;20191;-58
2022/01/03 03:12:39;;;;;;;41.73;24.50;;;;;;;7.22;97.02;99760.41;5069921;28;20198;-58
2022/01/03 03:15:08;;;;;;;46.07;24.77;;;;;;;7.24;96.82;99756.22;5071985;28;20290;-58
2022/01/03 03:17:35;;;;;;;49.67;24.70;;;;;;;7.24;96.82;99761.34;5077741;28;20195;-58
2022/01/03 03:20:06;;;;;;;50.53;25.03;;;;;;;7.27;96.68;99767.41;5081565;28;20286;-58
2022/01/03 03:22:34;;;;;;;42.27;24.60;;;;;;;7.22;96.09;99758.75;5074084;28;20190;-57
2022/01/03 03:25:02;;;;;;;41.23;24.97;;;;;;;7.23;96.13;99763.00;5078991;28;20278;-58
2022/01/03 03:27:29;;;;;;;40.80;24.03;;;;;;;7.23;96.43;99746.81;5074878;28;20256;-58
2022/01/03 03:29:58;;;;;;;40.58;24.98;;;;;;;7.26;96.08;99746.91;5071636;28;20512;-58
2022/01/03 03:32:26;;;;;;;40.63;25.70;;;;;;;7.24;96.39;99752.00;5072012;28;20272;-58
2022/01/03 03:34:54;;;;;;;38.90;25.00;;;;;;;7.18;95.26;99743.22;5072425;28;20191;-58
2022/01/03 03:37:21;;;;;;;41.77;25.57;;;;;;;7.17;94.87;99750.03;5072360;28;20201;-57
2022/01/03 03:39:48;;;;;;;40.43;25.93;;;;;;;7.10;94.86;99755.75;5071860;28;20754;-58
2022/01/03 03:42:16;;;;;;;40.87;25.17;;;;;;;7.03;94.10;99746.16;5071894;28;20284;-58
2022/01/03 03:44:45;;;;;;;42.43;25.60;;;;;;;7.02;94.35;99746.97;5071525;28;20225;-58
2022/01/03 03:47:13;;;;;;;42.23;24.40;;;;;;;6.99;94.73;99734.09;5071832;28;20613;-58
2022/01/03 03:49:40;;;;;;;44.80;26.60;;;;;;;6.96;94.82;99722.09;5072299;28;20304;-58
2022/01/03 03:52:07;;;;;;;48.10;25.67;;;;;;;6.89;96.19;99719.28;5071892;28;20204;-58
2022/01/03 03:54:35;;;;;;;40.77;26.07;;;;;;;6.92;95.83;99710.00;5071925;28;20190;-58
2022/01/03 03:57:03;;;;;;;48.73;26.10;;;;;;;6.94;95.86;99687.09;5071847;28;20291;-58
2022/01/03 03:59:31;;;;;;;51.63;25.23;;;;;;;6.88;95.50;99697.09;5071843;28;20199;-59
2022/01/03 04:01:58;;;;;;;49.78;31.95;;;;;;;6.88;96.30;99700.53;5070720;28;20893;-58
2022/01/03 04:04:27;;;;;;;46.53;27.83;;;;;;;6.92;96.60;99701.50;5071364;28;20216;-58
2022/01/03 04:06:54;;;;;;;42.43;25.07;;;;;;;6.91;96.74;99695.53;5071625;28;20219;-58
2022/01/03 04:09:21;;;;;;;45.87;24.73;;;;;;;6.89;96.88;99692.06;5071561;28;20220;-58
2022/01/03 04:11:49;;;;;;;61.53;26.70;;;;;;;6.86;97.23;99679.19;5071410;28;20283;-58
2022/01/03 04:14:16;;;;;;;43.93;25.37;;;;;;;6.82;97.17;99667.13;5071626;28;20271;-58
2022/01/03 04:16:43;;;;;;;48.50;24.73;;;;;;;6.77;96.58;99676.31;5071215;28;20231;-58
2022/01/03 04:19:10;;;;;;;49.67;26.73;;;;;;;6.75;96.91;99692.41;5071289;28;20282;-58
2022/01/03 04:21:39;;;;;;;54.20;27.90;;;;;;;6.79;97.62;99684.00;5070913;28;20279;-58
2022/01/03 04:24:08;;;;;;;49.37;26.53;;;;;;;6.89;97.65;99686.06;5068782;28;20578;-58
2022/01/03 04:26:35;;;;;;;34.33;23.00;;;;;;;6.69;98.01;99681.97;5059016;28;20208;-58
2022/01/03 04:29:02;;;;;;;48.83;25.80;;;;;;;6.66;98.07;99679.31;5050817;28;20323;-58
2022/01/03 04:31:29;;;;;;;43.63;23.97;;;;;;;6.46;98.96;99684.59;5051015;28;20691;-58
2022/01/03 04:33:56;;;;;;;36.57;20.47;;;;;;;6.25;100.00;99680.41;5050230;28;20196;-58
2022/01/03 04:36:23;;;;;;;37.30;20.93;;;;;;;6.29;100.00;99690.75;5051007;28;20196;-58
2022/01/03 04:38:52;;;;;;;35.23;21.17;;;;;;;6.23;100.00;99697.34;5051256;28;20203;-58
2022/01/03 04:41:19;;;;;;;40.57;22.33;;;;;;;6.27;100.00;99700.06;5050861;28;20247;-58
2022/01/03 04:43:46;;;;;;;35.60;21.33;;;;;;;6.18;100.00;99679.31;5050660;28;20299;-58
2022/01/03 04:46:13;;;;;;;36.37;19.00;;;;;;;6.00;100.00;99685.41;5050915;28;20277;-57
2022/01/03 04:48:42;;;;;;;35.90;20.57;;;;;;;6.16;100.00;99700.47;5050786;28;20663;-58
2022/01/03 04:51:11;;;;;;;40.30;23.63;;;;;;;6.20;100.00;99674.28;5050630;28;20635;-57
2022/01/03 04:53:40;;;;;;;32.63;19.97;;;;;;;6.40;100.00;99692.03;5050159;28;20185;-58
2022/01/03 04:56:10;;;;;;;37.40;19.63;;;;;;;6.29;100.00;99680.56;5050925;28;20193;-58
2022/01/03 04:58:38;;;;;;;35.30;20.13;;;;;;;6.50;100.00;99698.34;5050928;28;20900;-57
2022/01/03 05:01:06;;;;;;;37.73;19.97;;;;;;;6.56;100.00;99697.69;5050641;28;20195;-58
2022/01/03 05:03:33;;;;;;;39.17;20.83;;;;;;;6.63;99.92;99692.84;5050623;28;20222;-57
2022/01/03 05:06:02;;;;;;;46.43;21.30;;;;;;;6.71;99.61;99693.97;5050602;28;20201;-58
2022/01/03 05:08:29;;;;;;;34.70;20.90;;;;;;;6.78;100.00;99675.50;5050581;28;20628;-57
2022/01/03 05:10:56;;;;;;;35.57;20.23;;;;;;;6.88;99.27;99679.22;5050390;28;20223;-58
2022/01/03 05:13:24;;;;;;;37.03;21.33;;;;;;;6.95;99.06;99676.91;5050265;28;20243;-58
2022/01/03 05:15:51;;;;;;;35.23;21.17;;;;;;;7.04;98.56;99669.56;5050405;28;20280;-58
2022/01/03 05:18:18;;;;;;;39.20;24.90;;;;;;;7.02;96.91;99673.75;5050225;28;20627;-58
2022/01/03 05:20:45;;;;;;;42.33;25.17;;;;;;;6.92;95.39;99691.28;5050429;28;20193;-58
2022/01/03 05:23:12;;;;;;;43.83;26.07;;;;;;;6.78;94.15;99705.28;5050229;28;20718;-58
2022/01/03 05:25:39;;;;;;;35.00;24.60;;;;;;;6.72;94.27;99705.06;5050246;28;20281;-58
2022/01/03 05:28:06;;;;;;;43.03;30.00;;;;;;;6.69;93.11;99692.19;5049216;28;20455;-58
2022/01/03 05:30:35;;;;;;;41.33;27.03;;;;;;;6.62;92.14;99687.69;5050063;28;20198;-57
2022/01/03 05:33:02;;;;;;;40.27;24.53;;;;;;;6.49;91.62;99692.34;5050425;28;20286;-58
2022/01/03 05:35:29;;;;;;;38.17;24.23;;;;;;;6.43;92.12;99689.56;5050037;28;20192;-59
2022/01/03 05:37:56;;;;;;;42.67;26.83;;;;;;;6.40;92.59;99686.91;5050183;28;20552;-58
2022/01/03 05:40:24;;;;;;;44.13;24.67;;;;;;;6.39;92.67;99672.44;5050071;28;20579;-58
2022/01/03 05:42:51;;;;;;;51.03;28.60;;;;;;;6.39;92.79;99680.09;5050121;28;20197;-58
2022/01/03 05:45:18;;;;;;;45.10;26.00;;;;;;;6.42;92.47;99671.69;5052994;28;20296;-58
2022/01/03 05:47:47;;;;;;;56.20;29.27;;;;;;;6.43;92.87;99670.84;5054181;28;20630;-59
2022/01/03 05:50:15;;;;;;;50.00;25.53;;;;;;;6.46;93.23;99682.03;5054382;28;20199;-58
2022/01/03 05:52:42;;;;;;;44.17;26.27;;;;;;;6.48;93.07;99693.16;5053853;28;20290;-58
2022/01/03 05:55:09;;;;;;;53.20;27.73;;;;;;;6.48;93.20;99690.59;5053879;28;20275;-58
2022/01/03 05:57:37;;;;;;;53.40;29.27;;;;;;;6.48;93.17;99693.16;5053891;28;20199;-58
2022/01/03 06:00:06;;;;;;;55.83;28.57;;;;;;;6.54;93.33;99687.41;5054108;28;20305;-58
2022/01/03 06:02:34;;;;;;;47.60;27.33;;;;;;;6.51;93.06;99675.41;5058728;28;20193;-58
2022/01/03 06:05:05;;;;;;;49.07;27.50;;;;;;;6.50;92.62;99678.78;5073430;28;20212;-58
2022/01/03 06:07:32;;;;;;;49.33;27.27;;;;;;;6.34;91.86;99661.22;5071048;28;20640;-57
2022/01/03 06:09:59;;;;;;;51.37;27.97;;;;;;;6.48;92.23;99677.84;5073229;28;20184;-58
2022/01/03 06:12:26;;;;;;;50.20;26.57;;;;;;;6.48;92.91;99680.41;5073550;28;20181;-58
2022/01/03 06:14:53;;;;;;;51.33;28.53;;;;;;;6.44;92.94;99686.22;5073093;28;20195;-58
2022/01/03 06:17:20;;;;;;;56.23;29.50;;;;;;;6.49;93.24;99673.59;5073124;28;20188;-58
2022/01/03 06:19:49;;;;;;;57.93;28.63;;;;;;;6.48;92.74;99677.84;5073347;28;20283;-58
2022/01/03 06:22:18;;;;;;;54.23;30.20;;;;;;;6.48;93.67;99680.41;5073701;28;20203;-58
2022/01/03 06:24:45;;;;;;;58.77;29.77;;;;;;;6.44;93.78;99660.69;5073386;28;20230;-58
2022/01/03 06:27:12;;;;;;;56.30;29.93;;;;;;;6.44;93.35;99665.81;5073557;28;20232;-58
2022/01/03 06:29:38;;;;;;;53.97;28.67;;;;;;;6.49;94.39;99660.84;5069296;28;20205;-58
2022/01/03 06:32:06;;;;;;;51.87;28.40;;;;;;;6.57;94.17;99658.56;5053563;28;20209;-58
2022/01/03 06:34:33;;;;;;;63.30;29.00;;;;;;;6.61;94.53;99658.72;5053375;28;20196;-58
2022/01/03 06:37:00;;;;;;;57.97;28.97;;;;;;;6.67;94.32;99660.63;5052957;28;20207;-58
2022/01/03 06:39:28;;;;;;;53.87;29.00;;;;;;;6.76;94.67;99666.03;5058234;28;20202;-58
2022/01/03 06:41:55;;;;;;;58.87;26.70;;;;;;;6.79;94.13;99663.59;5072937;28;20286;-58
2022/01/03 06:44:22;;;;;;;42.77;23.33;;;;;;;6.79;94.25;99643.16;5060096;28;20223;-58
2022/01/03 06:46:49;;;;;;;45.57;23.33;;;;;;;6.78;93.52;99652.53;5052668;28;20190;-58
2022/01/03 06:49:15;;;;;;;46.47;23.73;;;;;;;6.79;94.53;99640.59;5052571;28;20202;-57
2022/01/03 06:51:43;;;;;;;45.70;24.23;;;;;;;6.82;94.85;99639.03;5052996;28;20204;-58
2022/01/03 06:54:12;;;;;;;52.65;29.40;;;;;;;6.96;94.75;99648.00;5051691;28;20442;-58
2022/01/03 06:56:41;;;;;;;51.53;25.87;;;;;;;7.04;94.04;99643.16;5052208;28;20202;-59
2022/01/03 06:59:08;;;;;;;50.03;24.77;;;;;;;7.17;93.14;99647.81;5052779;28;20710;-58
2022/01/03 07:01:36;;;;;;;54.63;27.13;;;;;;;7.22;93.26;99656.53;5052969;28;20200;-58
2022/01/03 07:04:03;;;;;;;49.43;23.20;;;;;;;7.31;92.32;99661.91;5052747;28;20218;-58
2022/01/03 07:06:31;;;;;;;43.23;23.33;;;;;;;7.23;91.91;99668.47;5052506;28;20203;-58
2022/01/03 07:08:58;;;;;;;37.13;21.60;;;;;;;7.25;92.44;99671.09;5052919;28;20199;-58
2022/01/03 07:11:25;;;;;;;39.27;21.70;;;;;;;7.14;91.84;99668.19;5052577;28;20563;-57
2022/01/03 07:14:05;;;;;;;34.13;18.90;;;;;;;6.95;92.14;99666.69;5052670;28;20574;-57
2022/01/03 07:19:16;;;;;;;31.17;18.23;;;;;;;6.87;91.85;99663.03;5052270;28;20301;-58
2022/01/03 07:21:43;;;;;;;28.77;18.77;;;;;;;6.74;92.23;99654.91;5052546;28;20197;-58
2022/01/03 07:24:10;;;;;;;32.87;19.47;;;;;;;6.43;92.77;99633.44;5052371;28;20218;-59
2022/01/03 07:26:37;;;;;;;36.10;20.10;;;;;;;6.60;93.03;99674.84;5055921;28;20188;-58
2022/01/03 07:29:05;;;;;;;32.23;19.80;;;;;;;6.31;93.48;99656.00;5071610;28;20626;-58
2022/01/03 07:31:32;;;;;;;39.17;21.13;;;;;;;6.27;93.78;99683.88;5072067;28;20660;-58
2022/01/03 07:33:59;;;;;;;40.87;19.57;;;;;;;6.22;94.18;99667.53;5071862;28;20218;-58
2022/01/03 07:36:27;;;;;;;40.63;23.37;;;;;;;6.34;94.79;99673.97;5072023;28;20196;-58
2022/01/03 07:38:54;;;;;;;41.63;22.37;;;;;;;6.39;94.09;99675.00;5071840;28;20698;-59
2022/01/03 07:41:21;;;;;;;35.23;20.07;;;;;;;6.53;94.50;99665.25;5071751;28;20290;-59
2022/01/03 07:43:48;;;;;;;30.63;20.23;;;;;;;6.39;94.61;99639.25;5071159;28;20574;-58
2022/01/03 07:46:16;;;;;;;33.23;19.10;;;;;;;6.49;93.72;99669.38;5071990;28;20234;-58
2022/01/03 07:48:43;;;;;;;32.03;19.03;;;;;;;6.66;93.57;99669.09;5067946;28;20205;-60
2022/01/03 07:51:10;;;;;;;32.20;19.63;;;;;;;6.78;92.42;99666.97;5052035;28;20196;-59
2022/01/03 07:53:37;;;;;;;36.93;21.17;;;;;;;6.98;92.52;99671.91;5068553;28;20894;-58
2022/01/03 07:56:05;;;;;;;33.90;20.03;;;;;;;7.14;91.36;99657.97;5071041;28;20183;-57
2022/01/03 07:58:32;;;;;;;36.17;20.67;;;;;;;7.21;90.08;99665.00;5071259;28;20180;-57
2022/01/03 08:00:59;;;;;;;28.53;19.73;;;;;;;7.39;89.25;99657.06;5070854;28;20276;-57
2022/01/03 08:03:28;;;;;;;25.40;18.57;;;;;;;7.45;88.36;99642.75;5070889;28;20202;-56
2022/01/03 08:05:55;;;;;;;31.43;19.83;;;;;;;7.48;87.15;99649.66;5070681;28;20204;-57
2022/01/03 08:08:22;;;;;;;34.83;21.77;;;;;;;7.43;86.87;99652.09;5075893;28;20195;-57
2022/01/03 08:10:49;;;;;;;29.33;19.63;;;;;;;7.39;86.69;99657.91;5076197;28;20263;-59
2022/01/03 08:13:16;;;;;;;33.80;22.93;;;;;;;7.43;87.26;99667.41;5074695;28;20246;-59
2022/01/03 08:15:43;;;;;;;35.30;22.03;;;;;;;7.45;87.16;99660.66;5069835;28;20260;-59
2022/01/03 08:18:10;;;;;;;36.27;22.17;;;;;;;7.41;87.03;99656.28;5072622;28;20281;-58
2022/01/03 08:20:39;;;;;;;38.28;27.30;;;;;;;7.46;86.82;99652.19;5068945;28;20437;-58
2022/01/03 08:23:06;;;;;;;34.97;23.27;;;;;;;7.56;86.16;99649.06;5071270;28;20667;-57
2022/01/03 08:25:37;;;;;;;29.07;20.57;;;;;;;7.58;86.23;99641.47;5077479;28;20200;-57
2022/01/03 08:28:04;;;;;;;30.53;21.30;;;;;;;7.38;85.91;99599.97;5069484;28;20287;-57
2022/01/03 08:30:31;;;;;;;31.43;19.27;;;;;;;7.38;85.58;99620.41;5076896;28;20190;-57
2022/01/03 08:32:58;;;;;;;35.90;24.92;;;;;;;7.43;86.10;99623.09;5079033;28;20958;-57
2022/01/03 08:35:25;;;;;;;30.60;21.83;;;;;;;7.53;86.25;99609.75;5081575;28;20176;-57
2022/01/03 08:37:54;;;;;;;32.93;22.60;;;;;;;7.57;85.93;99604.81;5079782;28;20223;-58
2022/01/03 08:40:21;;;;;;;36.60;22.90;;;;;;;7.51;86.29;99586.72;5079107;28;20271;-57
2022/01/03 08:42:48;;;;;;;32.40;21.73;;;;;;;7.60;86.50;99604.91;5079301;28;20203;-55
2022/01/03 08:45:15;;;;;;;34.93;21.90;;;;;;;7.76;85.87;99618.13;5076648;28;20215;-55
2022/01/03 08:47:43;;;;;;;33.27;22.40;;;;;;;8.00;85.70;99623.94;5078878;28;20194;-57
2022/01/03 08:50:11;;;;;;;31.57;22.07;;;;;;;7.88;84.27;99608.25;5076324;28;20374;-56
2022/01/03 08:52:38;;;;;;;33.60;22.07;;;;;;;7.89;84.34;99595.50;5079733;28;20290;-57
2022/01/03 08:55:07;;;;;;;36.73;22.50;;;;;;;8.06;84.88;99599.38;5078028;28;20188;-59
2022/01/03 08:57:34;;;;;;;41.23;23.67;;;;;;;8.11;84.44;99596.94;5079750;28;20199;-57
2022/01/03 09:00:01;;;;;;;32.87;22.93;;;;;;;8.21;84.30;99589.56;5080582;28;20281;-56
2022/01/03 09:02:28;;;;;;;30.43;22.23;;;;;;;8.09;84.08;99593.50;5078376;28;20272;-56
2022/01/03 09:04:55;;;;;;;30.97;22.07;;;;;;;7.98;84.14;99588.09;5079920;28;20214;-56
2022/01/03 09:07:22;;;;;;;37.83;24.60;;;;;;;7.92;84.18;99582.78;5083609;28;20608;-57
2022/01/03 09:09:49;;;;;;;35.23;25.97;;;;;;;7.52;85.72;99580.78;5083481;28;20222;-57
2022/01/03 09:12:17;;;;;;;31.97;22.17;;;;;;;7.71;86.17;99567.72;5079371;28;20190;-56
2022/01/03 09:14:44;;;;;;;34.08;26.92;;;;;;;7.81;85.94;99567.97;5078770;28;20434;-56
2022/01/03 09:17:11;;;;;;;30.50;22.47;;;;;;;7.93;85.55;99569.19;5065587;28;20203;-57
2022/01/03 09:19:38;;;;;;;25.47;21.27;;;;;;;8.04;85.18;99567.78;5069941;28;20321;-57
2022/01/03 09:22:13;;;;;;;25.10;19.47;;;;;;;8.02;84.32;99554.06;5061886;28;20206;-57
2022/01/03 09:24:54;;;;;;;26.87;19.73;;;;;;;8.07;84.55;99552.53;5049983;28;20216;-57
2022/01/03 09:30:11;;;;;;;44.73;28.97;;;;;;;8.36;83.13;99562.66;5049816;28;20290;-57
2022/01/03 09:32:39;;;;;;;49.17;30.83;;;;;;;8.42;83.31;99561.16;5049733;28;20282;-57
2022/01/03 09:35:07;;;;;;;50.23;31.57;;;;;;;8.65;83.29;99559.16;5049886;28;20189;-57
2022/01/03 09:37:34;;;;;;;47.63;31.33;;;;;;;8.60;83.01;99520.63;5052405;28;20194;-57
2022/01/03 09:40:02;;;;;;;50.37;31.93;;;;;;;8.87;82.92;99544.34;5070359;28;20201;-57
2022/01/03 09:42:33;;;;;;;49.72;33.10;;;;;;;9.00;82.47;99539.50;5069607;28;20430;-57
2022/01/03 09:45:04;;;;;;;50.37;32.70;;;;;;;9.09;81.54;99516.66;5069608;28;20232;-57
2022/01/03 09:47:33;;;;;;;49.37;31.30;;;;;;;9.24;80.64;99509.28;5069865;28;20282;-57
2022/01/03 09:50:01;;;;;;;47.57;29.90;;;;;;;9.36;80.01;99507.88;5051426;28;20204;-57
2022/01/03 09:52:31;;;;;;;41.47;29.60;;;;;;;9.38;79.79;99505.31;5049711;28;20304;-57
2022/01/03 09:54:59;;;;;;;54.70;31.87;;;;;;;9.54;79.82;99501.38;5049491;28;20192;-57
2022/01/03 09:57:28;;;;;;;50.90;32.03;;;;;;;9.71;78.32;99492.31;5049565;28;20191;-57
2022/01/03 09:59:59;;;;;;;47.27;30.07;;;;;;;9.85;78.17;99478.94;5059483;28;20294;-57
2022/01/03 10:02:26;;;;;;;52.13;33.40;;;;;;;10.03;77.81;99468.97;5069894;28;20202;-57
2022/01/03 10:04:53;;;;;;;46.83;30.27;;;;;;;10.22;77.04;99461.66;5069540;28;20713;-57
2022/01/03 10:07:21;;;;;;;48.77;31.10;;;;;;;10.30;76.38;99452.38;5069496;28;20194;-57
2022/01/03 10:09:48;;;;;;;62.93;31.40;;;;;;;10.37;76.22;99447.34;5069278;28;20191;-57
2022/01/03 10:12:18;;;;;;;54.27;33.27;;;;;;;10.51;76.12;99450.13;5069427;28;20194;-57
2022/01/03 10:14:45;;;;;;;48.37;31.57;;;;;;;10.54;75.58;99427.06;5069039;28;20226;-58
2022/01/03 10:17:13;;;;;;;49.00;32.07;;;;;;;10.60;75.31;99428.00;5069086;28;20199;-58
2022/01/03 10:20:05;;;;;;;48.53;34.63;;;;;;;10.70;75.27;99425.59;5069308;28;20278;-58
2022/01/03 10:22:35;;;;;;;53.40;36.50;;;;;;;10.85;74.44;99428.41;5064106;28;20195;-58
2022/01/03 10:25:10;;;;;;;52.00;36.80;;;;;;;10.91;74.02;99411.31;5068610;28;20453;-58
2022/01/03 10:27:46;;;;;;;50.37;34.83;;;;;;;11.07;72.92;99399.56;5068358;28;20607;-59
2022/01/03 10:30:16;;;;;;;49.33;34.13;;;;;;;11.26;73.28;99393.78;5068959;28;20629;-59
2022/01/03 10:32:51;;;;;;;46.97;31.60;;;;;;;11.38;72.33;99385.31;5072415;28;20548;-59
2022/01/03 10:35:19;;;;;;;54.87;32.97;;;;;;;11.51;71.65;99393.19;5072832;28;20214;-59
2022/01/03 10:37:46;;;;;;;50.78;36.92;;;;;;;11.63;71.52;99385.63;5072310;28;20545;-59
2022/01/03 10:40:18;;;;;;;49.17;32.27;;;;;;;11.83;70.39;99391.00;5072315;28;21010;-59
2022/01/03 10:42:46;;;;;;;44.63;32.87;;;;;;;11.96;70.30;99382.53;5072693;28;20210;-59
2022/01/03 10:45:13;;;;;;;42.07;30.93;;;;;;;12.12;68.72;99373.22;5072544;28;20219;-58
2022/01/03 10:47:42;;;;;;;50.70;32.80;;;;;;;12.17;68.12;99371.53;5072381;28;20282;-59
2022/01/03 10:50:17;;;;;;;61.87;35.47;;;;;;;12.24;68.50;99363.88;5072708;28;20191;-58
2022/01/03 10:52:45;;;;;;;53.20;35.67;;;;;;;12.21;67.92;99373.28;5072693;28;20278;-58
2022/01/03 10:55:15;;;;;;;42.47;30.17;;;;;;;12.11;67.37;99367.22;5072590;28;20340;-58
2022/01/03 10:57:47;;;;;;;46.53;29.57;;;;;;;12.26;67.82;99356.16;5072422;28;20206;-59
2022/01/03 11:00:16;;;;;;;44.03;30.37;;;;;;;12.50;67.18;99343.44;5071518;28;20213;-58
2022/01/03 11:03:08;;;;;;;37.70;27.97;;;;;;;12.74;65.41;99341.00;5064631;28;20188;-59
2022/01/03 11:05:43;;;;;;;50.50;32.73;;;;;;;12.85;67.33;99334.19;5063920;28;20236;-59
2022/01/03 11:10:54;;;;;;;62.20;40.10;;;;;;;12.97;68.24;99320.47;5072209;28;20179;-59
2022/01/03 11:13:23;;;;;;;64.10;39.30;;;;;;;12.99;68.37;99311.03;5072031;28;20199;-59
2022/01/03 11:15:52;;;;;;;57.90;39.97;;;;;;;12.95;67.90;99305.00;5072207;28;20286;-58
2022/01/03 11:18:21;;;;;;;78.37;48.30;;;;;;;12.84;69.36;99303.22;5072162;28;20294;-59
2022/01/03 11:21:01;;;;;;;80.53;48.73;;;;;;;12.81;70.58;99298.06;5071514;28;20191;-58
2022/01/03 11:23:28;;;;;;;74.33;48.57;;;;;;;13.00;69.94;99305.88;5081397;28;20190;-59
2022/01/03 11:25:55;;;;;;;73.47;44.83;;;;;;;13.14;69.92;99290.47;5081127;28;20617;-59
2022/01/03 11:28:23;;;;;;;53.40;36.37;;;;;;;13.24;69.02;99281.88;5080688;28;20258;-59
2022/01/03 11:30:52;;;;;;;49.70;34.63;;;;;;;13.06;68.56;99219.91;5079586;28;20182;-59
2022/01/03 11:33:21;;;;;;;51.40;32.93;;;;;;;13.50;68.50;99276.78;5082049;28;20195;-59
2022/01/03 11:35:51;;;;;;;49.57;32.93;;;;;;;13.47;68.16;99271.59;5078176;28;20194;-59
2022/01/03 11:38:21;;;;;;;49.93;33.33;;;;;;;13.48;68.15;99261.31;5081459;28;20192;-59